sensor_id;sensor_type;location;lat;lon;timestamp;P1;durP1;ratioP1;P2;durP2;ratioP2
15049;SDS011;7622;42.724;23.250;2023-05-21T00:00:00;8.83;;;8.03;;
15049;SDS011;7622;42.724;23.250;2023-05-21T00:02:27;9.17;;;8.23;;
15049;SDS011;7622;42.724;23.250;2023-05-21T00:04:54;8.83;;;7.90;;
15049;SDS011;7622;42.724;23.250;2023-05-21T00:07:22;8.67;;;7.77;;
15049;SDS011;7622;42.724;23.250;2023-05-21T00:09:49;9.50;;;8.37;;
15049;SDS011;7622;42.724;23.250;2023-05-21T00:12:17;9.47;;;8.57;;
15049;SDS011;7622;42.724;23.250;2023-05-21T00:14:43;9.27;;;8.43;;
15049;SDS011;7622;42.724;23.250;2023-05-21T00:17:10;8.83;;;7.47;;
15049;SDS011;7622;42.724;23.250;2023-05-21T00:19:37;8.90;;;8.10;;
15049;SDS011;7622;42.724;23.250;2023-05-21T00:22:04;9.43;;;7.80;;
15049;SDS011;7622;42.724;23.250;2023-05-21T00:24:32;8.50;;;7.70;;
15049;SDS011;7622;42.724;23.250;2023-05-21T00:26:59;10.93;;;8.10;;
15049;SDS011;7622;42.724;23.250;2023-05-21T00:29:26;11.17;;;7.57;;
15049;SDS011;7622;42.724;23.250;2023-05-21T00:31:54;10.53;;;7.30;;
15049;SDS011;7622;42.724;23.250;2023-05-21T00:34:20;9.23;;;7.67;;
15049;SDS011;7622;42.724;23.250;2023-05-21T00:36:47;8.73;;;7.83;;
15049;SDS011;7622;42.724;23.250;2023-05-21T00:39:14;8.27;;;7.33;;
15049;SDS011;7622;42.724;23.250;2023-05-21T00:41:43;9.07;;;6.83;;
15049;SDS011;7622;42.724;23.250;2023-05-21T00:44:10;9.80;;;7.00;;
15049;SDS011;7622;42.724;23.250;2023-05-21T00:46:38;9.37;;;7.87;;
15049;SDS011;7622;42.724;23.250;2023-05-21T00:49:05;8.93;;;7.17;;
15049;SDS011;7622;42.724;23.250;2023-05-21T00:51:32;9.73;;;7.23;;
15049;SDS011;7622;42.724;23.250;2023-05-21T00:53:59;10.10;;;7.23;;
15049;SDS011;7622;42.724;23.250;2023-05-21T00:56:26;8.27;;;6.83;;
15049;SDS011;7622;42.724;23.250;2023-05-21T00:58:55;9.90;;;7.80;;
15049;SDS011;7622;42.724;23.250;2023-05-21T01:01:22;10.13;;;7.83;;
15049;SDS011;7622;42.724;23.250;2023-05-21T01:03:50;9.07;;;6.67;;
15049;SDS011;7622;42.724;23.250;2023-05-21T01:06:18;8.27;;;6.77;;
15049;SDS011;7622;42.724;23.250;2023-05-21T01:08:45;8.53;;;7.33;;
15049;SDS011;7622;42.724;23.250;2023-05-21T01:11:12;7.60;;;7.00;;
15049;SDS011;7622;42.724;23.250;2023-05-21T01:13:40;7.53;;;6.77;;
15049;SDS011;7622;42.724;23.250;2023-05-21T01:16:09;6.80;;;6.10;;
15049;SDS011;7622;42.724;23.250;2023-05-21T01:18:37;6.47;;;5.97;;
15049;SDS011;7622;42.724;23.250;2023-05-21T01:21:07;7.97;;;7.13;;
15049;SDS011;7622;42.724;23.250;2023-05-21T01:23:35;6.80;;;6.20;;
15049;SDS011;7622;42.724;23.250;2023-05-21T01:26:02;8.50;;;7.00;;
15049;SDS011;7622;42.724;23.250;2023-05-21T01:28:29;6.83;;;6.23;;
15049;SDS011;7622;42.724;23.250;2023-05-21T01:30:57;6.83;;;6.20;;
15049;SDS011;7622;42.724;23.250;2023-05-21T01:33:35;7.73;;;6.63;;
15049;SDS011;7622;42.724;23.250;2023-05-21T01:36:07;8.47;;;7.13;;
15049;SDS011;7622;42.724;23.250;2023-05-21T01:38:41;9.33;;;6.73;;
15049;SDS011;7622;42.724;23.250;2023-05-21T01:41:13;7.63;;;6.33;;
15049;SDS011;7622;42.724;23.250;2023-05-21T01:43:44;7.80;;;6.30;;
15049;SDS011;7622;42.724;23.250;2023-05-21T01:46:20;7.93;;;6.33;;
15049;SDS011;7622;42.724;23.250;2023-05-21T01:48:51;8.30;;;6.80;;
15049;SDS011;7622;42.724;23.250;2023-05-21T01:51:20;9.30;;;6.37;;
15049;SDS011;7622;42.724;23.250;2023-05-21T01:53:48;7.23;;;6.60;;
15049;SDS011;7622;42.724;23.250;2023-05-21T01:56:15;8.47;;;7.40;;
15049;SDS011;7622;42.724;23.250;2023-05-21T01:58:42;8.83;;;6.70;;
15049;SDS011;7622;42.724;23.250;2023-05-21T02:01:09;7.30;;;6.60;;
15049;SDS011;7622;42.724;23.250;2023-05-21T02:03:36;7.20;;;6.30;;
15049;SDS011;7622;42.724;23.250;2023-05-21T02:06:02;6.80;;;6.10;;
15049;SDS011;7622;42.724;23.250;2023-05-21T02:08:29;8.20;;;6.37;;
15049;SDS011;7622;42.724;23.250;2023-05-21T02:10:58;6.97;;;5.97;;
15049;SDS011;7622;42.724;23.250;2023-05-21T02:13:25;6.63;;;5.77;;
15049;SDS011;7622;42.724;23.250;2023-05-21T02:15:53;6.87;;;6.27;;
15049;SDS011;7622;42.724;23.250;2023-05-21T02:18:20;6.60;;;6.00;;
15049;SDS011;7622;42.724;23.250;2023-05-21T02:20:47;6.77;;;6.13;;
15049;SDS011;7622;42.724;23.250;2023-05-21T02:23:14;6.93;;;6.00;;
15049;SDS011;7622;42.724;23.250;2023-05-21T02:25:40;8.93;;;6.37;;
15049;SDS011;7622;42.724;23.250;2023-05-21T02:28:09;6.90;;;6.30;;
15049;SDS011;7622;42.724;23.250;2023-05-21T02:30:36;7.20;;;6.30;;
15049;SDS011;7622;42.724;23.250;2023-05-21T02:33:03;8.53;;;6.37;;
15049;SDS011;7622;42.724;23.250;2023-05-21T02:35:30;8.67;;;7.07;;
15049;SDS011;7622;42.724;23.250;2023-05-21T02:37:57;8.10;;;7.30;;
15049;SDS011;7622;42.724;23.250;2023-05-21T02:40:26;7.07;;;6.37;;
15049;SDS011;7622;42.724;23.250;2023-05-21T02:42:53;15.07;;;7.50;;
15049;SDS011;7622;42.724;23.250;2023-05-21T02:45:21;9.10;;;7.40;;
15049;SDS011;7622;42.724;23.250;2023-05-21T02:47:48;7.33;;;6.63;;
15049;SDS011;7622;42.724;23.250;2023-05-21T02:50:15;10.10;;;7.70;;
15049;SDS011;7622;42.724;23.250;2023-05-21T02:52:42;9.27;;;7.40;;
15049;SDS011;7622;42.724;23.250;2023-05-21T02:55:08;8.70;;;6.70;;
15049;SDS011;7622;42.724;23.250;2023-05-21T02:57:35;13.77;;;7.07;;
15049;SDS011;7622;42.724;23.250;2023-05-21T03:00:02;8.20;;;7.20;;
15049;SDS011;7622;42.724;23.250;2023-05-21T03:02:31;8.53;;;6.83;;
15049;SDS011;7622;42.724;23.250;2023-05-21T03:04:58;7.43;;;6.83;;
15049;SDS011;7622;42.724;23.250;2023-05-21T03:07:25;13.93;;;7.00;;
15049;SDS011;7622;42.724;23.250;2023-05-21T03:09:51;10.27;;;7.23;;
15049;SDS011;7622;42.724;23.250;2023-05-21T03:12:18;7.80;;;6.80;;
15049;SDS011;7622;42.724;23.250;2023-05-21T03:14:45;8.30;;;7.03;;
15049;SDS011;7622;42.724;23.250;2023-05-21T03:17:12;8.37;;;6.90;;
15049;SDS011;7622;42.724;23.250;2023-05-21T03:19:40;7.77;;;6.80;;
15049;SDS011;7622;42.724;23.250;2023-05-21T03:22:07;10.67;;;7.00;;
15049;SDS011;7622;42.724;23.250;2023-05-21T03:24:34;8.00;;;7.20;;
15049;SDS011;7622;42.724;23.250;2023-05-21T03:27:02;8.03;;;7.23;;
15049;SDS011;7622;42.724;23.250;2023-05-21T03:29:30;7.83;;;7.07;;
15049;SDS011;7622;42.724;23.250;2023-05-21T03:31:57;8.63;;;7.73;;
15049;SDS011;7622;42.724;23.250;2023-05-21T03:34:24;12.00;;;7.43;;
15049;SDS011;7622;42.724;23.250;2023-05-21T03:36:52;8.93;;;7.80;;
15049;SDS011;7622;42.724;23.250;2023-05-21T03:39:19;8.73;;;7.77;;
15049;SDS011;7622;42.724;23.250;2023-05-21T03:41:46;7.87;;;6.83;;
15049;SDS011;7622;42.724;23.250;2023-05-21T03:44:12;9.63;;;7.27;;
15049;SDS011;7622;42.724;23.250;2023-05-21T03:46:39;11.73;;;8.17;;
15049;SDS011;7622;42.724;23.250;2023-05-21T03:49:06;12.50;;;7.90;;
15049;SDS011;7622;42.724;23.250;2023-05-21T03:51:33;9.50;;;8.43;;
15049;SDS011;7622;42.724;23.250;2023-05-21T03:54:01;12.80;;;8.03;;
15049;SDS011;7622;42.724;23.250;2023-05-21T03:56:28;8.07;;;7.27;;
15049;SDS011;7622;42.724;23.250;2023-05-21T03:58:54;9.97;;;7.33;;
15049;SDS011;7622;42.724;23.250;2023-05-21T04:01:21;14.23;;;8.27;;
15049;SDS011;7622;42.724;23.250;2023-05-21T04:03:48;14.63;;;8.53;;
15049;SDS011;7622;42.724;23.250;2023-05-21T04:06:15;10.47;;;7.73;;
15049;SDS011;7622;42.724;23.250;2023-05-21T04:08:43;11.27;;;7.80;;
15049;SDS011;7622;42.724;23.250;2023-05-21T04:11:11;8.63;;;7.80;;
15049;SDS011;7622;42.724;23.250;2023-05-21T04:13:37;11.50;;;8.07;;
15049;SDS011;7622;42.724;23.250;2023-05-21T04:16:04;12.53;;;8.60;;
15049;SDS011;7622;42.724;23.250;2023-05-21T04:18:32;11.67;;;8.30;;
15049;SDS011;7622;42.724;23.250;2023-05-21T04:20:59;9.27;;;8.00;;
15049;SDS011;7622;42.724;23.250;2023-05-21T04:23:26;12.60;;;7.80;;
15049;SDS011;7622;42.724;23.250;2023-05-21T04:25:53;8.40;;;7.60;;
15049;SDS011;7622;42.724;23.250;2023-05-21T04:28:21;10.90;;;8.17;;
15049;SDS011;7622;42.724;23.250;2023-05-21T04:30:48;9.30;;;8.50;;
15049;SDS011;7622;42.724;23.250;2023-05-21T04:33:15;10.50;;;8.63;;
15049;SDS011;7622;42.724;23.250;2023-05-21T04:35:44;12.50;;;8.07;;
15049;SDS011;7622;42.724;23.250;2023-05-21T04:38:15;13.83;;;8.33;;
15049;SDS011;7622;42.724;23.250;2023-05-21T04:40:43;19.93;;;8.73;;
15049;SDS011;7622;42.724;23.250;2023-05-21T04:43:10;10.73;;;8.03;;
15049;SDS011;7622;42.724;23.250;2023-05-21T04:45:38;9.20;;;8.40;;
15049;SDS011;7622;42.724;23.250;2023-05-21T04:48:05;11.68;;;9.38;;
15049;SDS011;7622;42.724;23.250;2023-05-21T04:50:32;11.87;;;9.00;;
15049;SDS011;7622;42.724;23.250;2023-05-21T04:52:59;11.50;;;8.63;;
15049;SDS011;7622;42.724;23.250;2023-05-21T04:55:25;13.37;;;8.67;;
15049;SDS011;7622;42.724;23.250;2023-05-21T04:57:53;10.60;;;8.13;;
15049;SDS011;7622;42.724;23.250;2023-05-21T05:00:20;10.07;;;8.23;;
15049;SDS011;7622;42.724;23.250;2023-05-21T05:02:48;11.27;;;7.90;;
15049;SDS011;7622;42.724;23.250;2023-05-21T05:05:15;9.93;;;8.30;;
15049;SDS011;7622;42.724;23.250;2023-05-21T05:07:41;10.13;;;8.20;;
15049;SDS011;7622;42.724;23.250;2023-05-21T05:10:08;9.43;;;7.97;;
15049;SDS011;7622;42.724;23.250;2023-05-21T05:12:35;11.97;;;8.20;;
15049;SDS011;7622;42.724;23.250;2023-05-21T05:15:02;8.63;;;7.57;;
15049;SDS011;7622;42.724;23.250;2023-05-21T05:17:29;11.27;;;7.77;;
15049;SDS011;7622;42.724;23.250;2023-05-21T05:19:59;10.17;;;8.13;;
15049;SDS011;7622;42.724;23.250;2023-05-21T05:22:26;12.17;;;7.27;;
15049;SDS011;7622;42.724;23.250;2023-05-21T05:24:53;14.03;;;6.90;;
15049;SDS011;7622;42.724;23.250;2023-05-21T05:27:20;8.07;;;7.37;;
15049;SDS011;7622;42.724;23.250;2023-05-21T05:29:47;6.97;;;6.33;;
15049;SDS011;7622;42.724;23.250;2023-05-21T05:32:13;9.83;;;7.43;;
15049;SDS011;7622;42.724;23.250;2023-05-21T05:34:40;8.20;;;6.57;;
15049;SDS011;7622;42.724;23.250;2023-05-21T05:37:09;7.90;;;7.03;;
15049;SDS011;7622;42.724;23.250;2023-05-21T05:39:36;7.50;;;6.50;;
15049;SDS011;7622;42.724;23.250;2023-05-21T05:42:03;6.87;;;6.27;;
15049;SDS011;7622;42.724;23.250;2023-05-21T05:44:30;7.17;;;6.13;;
15049;SDS011;7622;42.724;23.250;2023-05-21T05:46:57;9.73;;;6.40;;
15049;SDS011;7622;42.724;23.250;2023-05-21T05:49:23;7.30;;;6.63;;
15049;SDS011;7622;42.724;23.250;2023-05-21T05:51:50;6.93;;;5.63;;
15049;SDS011;7622;42.724;23.250;2023-05-21T05:54:18;6.60;;;6.07;;
15049;SDS011;7622;42.724;23.250;2023-05-21T05:56:45;8.57;;;6.60;;
15049;SDS011;7622;42.724;23.250;2023-05-21T05:59:12;6.73;;;6.00;;
15049;SDS011;7622;42.724;23.250;2023-05-21T06:01:38;8.23;;;6.10;;
15049;SDS011;7622;42.724;23.250;2023-05-21T06:04:06;8.93;;;6.50;;
15049;SDS011;7622;42.724;23.250;2023-05-21T06:06:33;6.77;;;6.10;;
15049;SDS011;7622;42.724;23.250;2023-05-21T06:09:00;11.97;;;6.23;;
15049;SDS011;7622;42.724;23.250;2023-05-21T06:11:28;9.73;;;6.43;;
15049;SDS011;7622;42.724;23.250;2023-05-21T06:13:55;7.93;;;6.03;;
15049;SDS011;7622;42.724;23.250;2023-05-21T06:16:24;6.63;;;5.97;;
15049;SDS011;7622;42.724;23.250;2023-05-21T06:18:51;9.37;;;6.13;;
15049;SDS011;7622;42.724;23.250;2023-05-21T06:21:18;6.33;;;5.73;;
15049;SDS011;7622;42.724;23.250;2023-05-21T06:23:45;6.57;;;5.97;;
15049;SDS011;7622;42.724;23.250;2023-05-21T06:26:11;6.80;;;5.33;;
15049;SDS011;7622;42.724;23.250;2023-05-21T06:28:40;6.60;;;5.87;;
15049;SDS011;7622;42.724;23.250;2023-05-21T06:31:06;5.80;;;5.23;;
15049;SDS011;7622;42.724;23.250;2023-05-21T06:33:33;11.67;;;4.97;;
15049;SDS011;7622;42.724;23.250;2023-05-21T06:36:00;6.70;;;5.63;;
15049;SDS011;7622;42.724;23.250;2023-05-21T06:38:26;7.17;;;5.30;;
15049;SDS011;7622;42.724;23.250;2023-05-21T06:40:53;7.10;;;5.77;;
15049;SDS011;7622;42.724;23.250;2023-05-21T06:43:20;8.73;;;5.87;;
15049;SDS011;7622;42.724;23.250;2023-05-21T06:45:48;10.83;;;5.60;;
15049;SDS011;7622;42.724;23.250;2023-05-21T06:48:15;7.37;;;6.43;;
15049;SDS011;7622;42.724;23.250;2023-05-21T06:50:42;9.60;;;5.90;;
15049;SDS011;7622;42.724;23.250;2023-05-21T06:53:09;7.40;;;6.40;;
15049;SDS011;7622;42.724;23.250;2023-05-21T06:55:37;6.67;;;6.07;;
15049;SDS011;7622;42.724;23.250;2023-05-21T06:58:04;8.20;;;7.03;;
15049;SDS011;7622;42.724;23.250;2023-05-21T07:00:31;8.77;;;6.30;;
15049;SDS011;7622;42.724;23.250;2023-05-21T07:02:59;10.63;;;6.47;;
15049;SDS011;7622;42.724;23.250;2023-05-21T07:05:26;8.73;;;6.07;;
15049;SDS011;7622;42.724;23.250;2023-05-21T07:07:52;6.03;;;5.40;;
15049;SDS011;7622;42.724;23.250;2023-05-21T07:10:19;8.67;;;6.83;;
15049;SDS011;7622;42.724;23.250;2023-05-21T07:12:46;8.20;;;5.33;;
15049;SDS011;7622;42.724;23.250;2023-05-21T07:15:13;7.27;;;5.17;;
15049;SDS011;7622;42.724;23.250;2023-05-21T07:17:39;9.10;;;5.37;;
15049;SDS011;7622;42.724;23.250;2023-05-21T07:20:08;9.67;;;5.53;;
15049;SDS011;7622;42.724;23.250;2023-05-21T07:22:36;7.50;;;5.37;;
15049;SDS011;7622;42.724;23.250;2023-05-21T07:25:04;8.20;;;6.10;;
15049;SDS011;7622;42.724;23.250;2023-05-21T07:27:31;9.93;;;4.83;;
15049;SDS011;7622;42.724;23.250;2023-05-21T07:29:58;8.97;;;5.07;;
15049;SDS011;7622;42.724;23.250;2023-05-21T07:32:24;7.27;;;5.10;;
15049;SDS011;7622;42.724;23.250;2023-05-21T07:34:53;7.10;;;5.63;;
15049;SDS011;7622;42.724;23.250;2023-05-21T07:37:21;5.17;;;4.77;;
15049;SDS011;7622;42.724;23.250;2023-05-21T07:39:48;7.40;;;5.37;;
15049;SDS011;7622;42.724;23.250;2023-05-21T07:42:14;8.40;;;5.37;;
15049;SDS011;7622;42.724;23.250;2023-05-21T07:44:41;6.77;;;4.50;;
15049;SDS011;7622;42.724;23.250;2023-05-21T07:47:08;7.60;;;4.87;;
15049;SDS011;7622;42.724;23.250;2023-05-21T07:49:34;5.43;;;4.87;;
15049;SDS011;7622;42.724;23.250;2023-05-21T07:52:01;5.93;;;4.70;;
15049;SDS011;7622;42.724;23.250;2023-05-21T07:54:29;5.43;;;4.80;;
15049;SDS011;7622;42.724;23.250;2023-05-21T07:56:56;7.60;;;5.07;;
15049;SDS011;7622;42.724;23.250;2023-05-21T07:59:23;7.10;;;5.40;;
15049;SDS011;7622;42.724;23.250;2023-05-21T08:01:50;8.43;;;5.33;;
15049;SDS011;7622;42.724;23.250;2023-05-21T08:04:16;6.27;;;4.60;;
15049;SDS011;7622;42.724;23.250;2023-05-21T08:06:43;5.73;;;5.13;;
15049;SDS011;7622;42.724;23.250;2023-05-21T08:09:10;4.87;;;4.27;;
15049;SDS011;7622;42.724;23.250;2023-05-21T08:11:39;9.83;;;4.43;;
15049;SDS011;7622;42.724;23.250;2023-05-21T08:14:06;10.93;;;5.17;;
15049;SDS011;7622;42.724;23.250;2023-05-21T08:16:32;6.70;;;4.83;;
15049;SDS011;7622;42.724;23.250;2023-05-21T08:19:00;6.73;;;4.90;;
15049;SDS011;7622;42.724;23.250;2023-05-21T08:21:27;7.20;;;4.50;;
15049;SDS011;7622;42.724;23.250;2023-05-21T08:23:54;5.43;;;4.20;;
15049;SDS011;7622;42.724;23.250;2023-05-21T08:26:21;5.77;;;4.23;;
15049;SDS011;7622;42.724;23.250;2023-05-21T08:28:49;6.37;;;4.40;;
15049;SDS011;7622;42.724;23.250;2023-05-21T08:31:16;4.53;;;3.83;;
15049;SDS011;7622;42.724;23.250;2023-05-21T08:33:48;5.10;;;4.67;;
15049;SDS011;7622;42.724;23.250;2023-05-21T08:36:15;9.03;;;4.30;;
15049;SDS011;7622;42.724;23.250;2023-05-21T08:38:42;3.47;;;2.97;;
15049;SDS011;7622;42.724;23.250;2023-05-21T08:41:09;5.70;;;3.57;;
15049;SDS011;7622;42.724;23.250;2023-05-21T08:43:37;6.10;;;3.77;;
15049;SDS011;7622;42.724;23.250;2023-05-21T08:46:06;5.03;;;3.70;;
15049;SDS011;7622;42.724;23.250;2023-05-21T08:48:34;5.33;;;3.93;;
15049;SDS011;7622;42.724;23.250;2023-05-21T08:51:02;5.30;;;3.57;;
15049;SDS011;7622;42.724;23.250;2023-05-21T08:53:30;7.27;;;3.70;;
15049;SDS011;7622;42.724;23.250;2023-05-21T08:55:57;6.60;;;3.50;;
15049;SDS011;7622;42.724;23.250;2023-05-21T08:58:25;6.07;;;3.73;;
15049;SDS011;7622;42.724;23.250;2023-05-21T09:00:53;4.37;;;3.97;;
15049;SDS011;7622;42.724;23.250;2023-05-21T09:03:22;5.80;;;3.80;;
15049;SDS011;7622;42.724;23.250;2023-05-21T09:05:49;8.37;;;3.60;;
15049;SDS011;7622;42.724;23.250;2023-05-21T09:08:17;7.20;;;3.67;;
15049;SDS011;7622;42.724;23.250;2023-05-21T09:10:47;4.43;;;4.03;;
15049;SDS011;7622;42.724;23.250;2023-05-21T09:13:15;6.03;;;3.40;;
15049;SDS011;7622;42.724;23.250;2023-05-21T09:15:42;6.23;;;3.70;;
15049;SDS011;7622;42.724;23.250;2023-05-21T09:18:10;5.33;;;3.50;;
15049;SDS011;7622;42.724;23.250;2023-05-21T09:20:38;6.30;;;3.53;;
15049;SDS011;7622;42.724;23.250;2023-05-21T09:23:06;4.27;;;3.83;;
15049;SDS011;7622;42.724;23.250;2023-05-21T09:25:36;4.50;;;3.67;;
15049;SDS011;7622;42.724;23.250;2023-05-21T09:28:09;8.83;;;4.40;;
15049;SDS011;7622;42.724;23.250;2023-05-21T09:30:36;7.27;;;3.90;;
15049;SDS011;7622;42.724;23.250;2023-05-21T09:33:09;6.93;;;3.97;;
15049;SDS011;7622;42.724;23.250;2023-05-21T09:35:38;4.60;;;3.83;;
15049;SDS011;7622;42.724;23.250;2023-05-21T09:38:10;6.37;;;4.23;;
15049;SDS011;7622;42.724;23.250;2023-05-21T09:40:42;4.00;;;3.63;;
15049;SDS011;7622;42.724;23.250;2023-05-21T09:43:12;4.27;;;3.73;;
15049;SDS011;7622;42.724;23.250;2023-05-21T09:45:48;8.67;;;3.93;;
15049;SDS011;7622;42.724;23.250;2023-05-21T09:48:27;5.57;;;3.87;;
15049;SDS011;7622;42.724;23.250;2023-05-21T09:51:09;5.13;;;3.90;;
15049;SDS011;7622;42.724;23.250;2023-05-21T09:53:41;5.13;;;3.80;;
15049;SDS011;7622;42.724;23.250;2023-05-21T09:56:09;6.20;;;3.43;;
15049;SDS011;7622;42.724;23.250;2023-05-21T09:58:36;4.43;;;3.77;;
15049;SDS011;7622;42.724;23.250;2023-05-21T10:01:03;8.27;;;4.00;;
15049;SDS011;7622;42.724;23.250;2023-05-21T10:03:31;7.10;;;4.20;;
15049;SDS011;7622;42.724;23.250;2023-05-21T10:06:03;6.60;;;3.50;;
15049;SDS011;7622;42.724;23.250;2023-05-21T10:08:34;4.23;;;3.70;;
15049;SDS011;7622;42.724;23.250;2023-05-21T10:11:02;6.20;;;4.03;;
15049;SDS011;7622;42.724;23.250;2023-05-21T10:13:30;4.97;;;4.20;;
15049;SDS011;7622;42.724;23.250;2023-05-21T10:16:00;7.20;;;3.73;;
15049;SDS011;7622;42.724;23.250;2023-05-21T10:18:27;5.47;;;3.83;;
15049;SDS011;7622;42.724;23.250;2023-05-21T10:20:56;7.03;;;3.87;;
15049;SDS011;7622;42.724;23.250;2023-05-21T10:23:27;5.50;;;3.77;;
15049;SDS011;7622;42.724;23.250;2023-05-21T10:25:55;6.07;;;4.00;;
15049;SDS011;7622;42.724;23.250;2023-05-21T10:28:22;4.20;;;3.80;;
15049;SDS011;7622;42.724;23.250;2023-05-21T10:30:50;7.47;;;3.37;;
15049;SDS011;7622;42.724;23.250;2023-05-21T10:33:18;7.53;;;3.87;;
15049;SDS011;7622;42.724;23.250;2023-05-21T10:35:46;6.40;;;3.43;;
15049;SDS011;7622;42.724;23.250;2023-05-21T10:38:16;3.70;;;3.40;;
15049;SDS011;7622;42.724;23.250;2023-05-21T10:40:46;4.73;;;3.67;;
15049;SDS011;7622;42.724;23.250;2023-05-21T10:43:21;3.63;;;3.37;;
15049;SDS011;7622;42.724;23.250;2023-05-21T10:46:04;5.27;;;3.83;;
15049;SDS011;7622;42.724;23.250;2023-05-21T10:48:52;5.03;;;4.03;;
15049;SDS011;7622;42.724;23.250;2023-05-21T10:51:35;6.40;;;3.93;;
15049;SDS011;7622;42.724;23.250;2023-05-21T10:54:16;6.60;;;4.30;;
15049;SDS011;7622;42.724;23.250;2023-05-21T10:57:01;3.67;;;2.93;;
15049;SDS011;7622;42.724;23.250;2023-05-21T10:59:38;5.90;;;4.00;;
15049;SDS011;7622;42.724;23.250;2023-05-21T11:02:08;4.90;;;3.93;;
15049;SDS011;7622;42.724;23.250;2023-05-21T11:04:38;5.87;;;3.50;;
15049;SDS011;7622;42.724;23.250;2023-05-21T11:07:07;5.37;;;3.50;;
15049;SDS011;7622;42.724;23.250;2023-05-21T11:09:34;5.23;;;3.90;;
15049;SDS011;7622;42.724;23.250;2023-05-21T11:12:02;6.90;;;4.63;;
15049;SDS011;7622;42.724;23.250;2023-05-21T11:14:30;6.40;;;4.50;;
15049;SDS011;7622;42.724;23.250;2023-05-21T11:17:00;5.27;;;4.00;;
15049;SDS011;7622;42.724;23.250;2023-05-21T11:19:34;4.90;;;4.33;;
15049;SDS011;7622;42.724;23.250;2023-05-21T11:22:06;4.50;;;4.13;;
15049;SDS011;7622;42.724;23.250;2023-05-21T11:24:37;4.40;;;4.00;;
15049;SDS011;7622;42.724;23.250;2023-05-21T11:27:08;5.17;;;4.00;;
15049;SDS011;7622;42.724;23.250;2023-05-21T11:29:37;4.50;;;4.10;;
15049;SDS011;7622;42.724;23.250;2023-05-21T11:32:09;11.90;;;4.53;;
15049;SDS011;7622;42.724;23.250;2023-05-21T11:34:37;4.90;;;4.50;;
15049;SDS011;7622;42.724;23.250;2023-05-21T11:37:25;7.90;;;4.33;;
15049;SDS011;7622;42.724;23.250;2023-05-21T11:40:18;5.03;;;4.60;;
15049;SDS011;7622;42.724;23.250;2023-05-21T11:42:52;4.40;;;4.00;;
15049;SDS011;7622;42.724;23.250;2023-05-21T11:45:20;4.73;;;4.23;;
15049;SDS011;7622;42.724;23.250;2023-05-21T11:47:48;4.83;;;4.20;;
15049;SDS011;7622;42.724;23.250;2023-05-21T11:50:17;8.30;;;4.67;;
15049;SDS011;7622;42.724;23.250;2023-05-21T11:52:44;5.83;;;3.83;;
15049;SDS011;7622;42.724;23.250;2023-05-21T11:55:11;7.17;;;4.20;;
15049;SDS011;7622;42.724;23.250;2023-05-21T11:57:40;7.50;;;4.10;;
15049;SDS011;7622;42.724;23.250;2023-05-21T12:00:13;5.60;;;4.03;;
15049;SDS011;7622;42.724;23.250;2023-05-21T12:02:45;9.80;;;4.43;;
15049;SDS011;7622;42.724;23.250;2023-05-21T12:05:13;6.77;;;3.80;;
15049;SDS011;7622;42.724;23.250;2023-05-21T12:07:40;7.50;;;4.53;;
15049;SDS011;7622;42.724;23.250;2023-05-21T12:10:07;8.43;;;4.63;;
15049;SDS011;7622;42.724;23.250;2023-05-21T12:12:35;9.20;;;4.87;;
15049;SDS011;7622;42.724;23.250;2023-05-21T12:15:02;7.90;;;3.57;;
15049;SDS011;7622;42.724;23.250;2023-05-21T12:17:30;8.67;;;4.63;;
15049;SDS011;7622;42.724;23.250;2023-05-21T12:19:57;8.57;;;4.80;;
15049;SDS011;7622;42.724;23.250;2023-05-21T12:22:25;6.23;;;3.90;;
15049;SDS011;7622;42.724;23.250;2023-05-21T12:24:53;5.10;;;4.67;;
15049;SDS011;7622;42.724;23.250;2023-05-21T12:27:22;10.80;;;4.40;;
15049;SDS011;7622;42.724;23.250;2023-05-21T12:29:49;7.27;;;4.33;;
15049;SDS011;7622;42.724;23.250;2023-05-21T12:32:18;8.53;;;4.40;;
15049;SDS011;7622;42.724;23.250;2023-05-21T12:34:47;7.27;;;4.30;;
15049;SDS011;7622;42.724;23.250;2023-05-21T12:37:16;9.33;;;4.97;;
15049;SDS011;7622;42.724;23.250;2023-05-21T12:39:46;6.97;;;4.03;;
15049;SDS011;7622;42.724;23.250;2023-05-21T12:42:14;9.87;;;4.80;;
15049;SDS011;7622;42.724;23.250;2023-05-21T12:44:42;7.13;;;4.83;;
15049;SDS011;7622;42.724;23.250;2023-05-21T12:47:10;3.90;;;3.50;;
15049;SDS011;7622;42.724;23.250;2023-05-21T12:49:38;8.07;;;4.20;;
15049;SDS011;7622;42.724;23.250;2023-05-21T12:52:10;6.60;;;4.20;;
15049;SDS011;7622;42.724;23.250;2023-05-21T12:54:39;8.23;;;4.60;;
15049;SDS011;7622;42.724;23.250;2023-05-21T12:57:08;7.07;;;5.87;;
15049;SDS011;7622;42.724;23.250;2023-05-21T12:59:49;5.83;;;5.33;;
15049;SDS011;7622;42.724;23.250;2023-05-21T13:02:20;5.17;;;4.57;;
15049;SDS011;7622;42.724;23.250;2023-05-21T13:04:52;8.73;;;4.17;;
15049;SDS011;7622;42.724;23.250;2023-05-21T13:07:21;8.37;;;4.63;;
15049;SDS011;7622;42.724;23.250;2023-05-21T13:09:49;5.17;;;4.33;;
15049;SDS011;7622;42.724;23.250;2023-05-21T13:12:17;11.60;;;4.67;;
15049;SDS011;7622;42.724;23.250;2023-05-21T13:14:44;6.07;;;4.33;;
15049;SDS011;7622;42.724;23.250;2023-05-21T13:17:11;3.83;;;3.60;;
15049;SDS011;7622;42.724;23.250;2023-05-21T13:19:38;4.90;;;4.40;;
15049;SDS011;7622;42.724;23.250;2023-05-21T13:22:05;6.27;;;4.47;;
15049;SDS011;7622;42.724;23.250;2023-05-21T13:24:33;6.73;;;4.53;;
15049;SDS011;7622;42.724;23.250;2023-05-21T13:27:00;7.50;;;5.20;;
15049;SDS011;7622;42.724;23.250;2023-05-21T13:29:27;5.00;;;4.47;;
15049;SDS011;7622;42.724;23.250;2023-05-21T13:31:54;11.90;;;4.70;;
15049;SDS011;7622;42.724;23.250;2023-05-21T13:34:21;8.97;;;4.93;;
15049;SDS011;7622;42.724;23.250;2023-05-21T13:36:47;7.27;;;4.73;;
15049;SDS011;7622;42.724;23.250;2023-05-21T13:39:14;6.83;;;5.23;;
15049;SDS011;7622;42.724;23.250;2023-05-21T13:41:42;4.80;;;4.40;;
15049;SDS011;7622;42.724;23.250;2023-05-21T13:44:09;6.30;;;4.20;;
15049;SDS011;7622;42.724;23.250;2023-05-21T13:46:36;5.63;;;5.03;;
15049;SDS011;7622;42.724;23.250;2023-05-21T13:49:03;6.47;;;4.77;;
15049;SDS011;7622;42.724;23.250;2023-05-21T13:51:31;5.63;;;5.00;;
15049;SDS011;7622;42.724;23.250;2023-05-21T13:53:58;10.47;;;4.40;;
15049;SDS011;7622;42.724;23.250;2023-05-21T13:56:25;7.13;;;5.27;;
15049;SDS011;7622;42.724;23.250;2023-05-21T13:58:53;7.03;;;3.67;;
15049;SDS011;7622;42.724;23.250;2023-05-21T14:01:20;6.00;;;4.50;;
15049;SDS011;7622;42.724;23.250;2023-05-21T14:03:46;8.37;;;4.40;;
15049;SDS011;7622;42.724;23.250;2023-05-21T14:06:13;5.53;;;4.40;;
15049;SDS011;7622;42.724;23.250;2023-05-21T14:08:40;4.73;;;4.33;;
15049;SDS011;7622;42.724;23.250;2023-05-21T14:11:07;5.47;;;4.77;;
15049;SDS011;7622;42.724;23.250;2023-05-21T14:13:33;11.47;;;5.00;;
15049;SDS011;7622;42.724;23.250;2023-05-21T14:16:02;4.23;;;3.83;;
15049;SDS011;7622;42.724;23.250;2023-05-21T14:18:29;4.50;;;4.20;;
15049;SDS011;7622;42.724;23.250;2023-05-21T14:20:56;7.47;;;4.30;;
15049;SDS011;7622;42.724;23.250;2023-05-21T14:23:23;4.70;;;4.17;;
15049;SDS011;7622;42.724;23.250;2023-05-21T14:25:50;5.70;;;4.73;;
15049;SDS011;7622;42.724;23.250;2023-05-21T14:28:17;11.07;;;4.77;;
15049;SDS011;7622;42.724;23.250;2023-05-21T14:30:43;6.43;;;4.43;;
15049;SDS011;7622;42.724;23.250;2023-05-21T14:33:12;6.53;;;4.40;;
15049;SDS011;7622;42.724;23.250;2023-05-21T14:35:38;7.93;;;4.17;;
15049;SDS011;7622;42.724;23.250;2023-05-21T14:38:08;6.73;;;5.27;;
15049;SDS011;7622;42.724;23.250;2023-05-21T14:40:34;4.83;;;4.43;;
15049;SDS011;7622;42.724;23.250;2023-05-21T14:43:01;5.30;;;4.30;;
15049;SDS011;7622;42.724;23.250;2023-05-21T14:45:29;5.37;;;4.60;;
15049;SDS011;7622;42.724;23.250;2023-05-21T14:47:59;4.77;;;4.27;;
15049;SDS011;7622;42.724;23.250;2023-05-21T14:50:27;4.93;;;4.53;;